This is the latest recevied weather packets stored in our database for station/object DB0SWS-6. If no packets are shown the sender has not sent any weather packets the latest 10 day(s).
| Time | Temp. | Humidity | Pressure | Rain* | Wind** | Luminosity | Snow |
|---|---|---|---|---|---|---|---|
| 1777334610 | 14.44° C | 43% | 962.5 hPa | 0 mm | - | - | - |
| 1777332810 | 14.44° C | 42% | 962.8 hPa | 0 mm | - | - | - |
| 1777331012 | 14.44° C | 42% | 962.8 hPa | 0 mm | - | - | - |
| 1777329210 | 14.44° C | 42% | 963.1 hPa | 0 mm | - | - | - |
| 1777327411 | 14.44° C | 41% | 963 hPa | 0 mm | - | - | - |
| 1777325612 | 14.44° C | 41% | 963.3 hPa | 0 mm | - | - | - |
| 1777323810 | 15° C | 41% | 963.4 hPa | 0 mm | - | - | - |
| 1777322011 | 14.44° C | 42% | 963.6 hPa | 0 mm | - | - | - |
| 1777320210 | 15° C | 39% | 963.7 hPa | 0 mm | - | - | - |
| 1777318410 | 15.56° C | 40% | 963.8 hPa | 0 mm | - | - | - |
| 1777316610 | 15.56° C | 43% | 963.7 hPa | 0 mm | - | - | - |
| 1777314811 | 16.67° C | 42% | 963.5 hPa | 0 mm | - | - | - |
| 1777313010 | 17.22° C | 44% | 963.3 hPa | 0 mm | - | - | - |
| 1777311210 | 18.89° C | 41% | 963.1 hPa | 0 mm | - | - | - |
| 1777309411 | 20.56° C | 42% | 963.4 hPa | 0 mm | - | - | - |
| 1777307609 | 20° C | 39% | 963.5 hPa | 0 mm | - | - | - |
| 1777305810 | 21.11° C | 40% | 963.7 hPa | 0 mm | - | - | - |
| 1777304010 | 21.11° C | 41% | 963.7 hPa | 0 mm | - | - | - |
| 1777302210 | 20.56° C | 42% | 964.1 hPa | 0 mm | - | - | - |
| 1777300411 | 20.56° C | 43% | 964.2 hPa | 0 mm | - | - | - |
| 1777298610 | 20° C | 43% | 964.7 hPa | 0 mm | - | - | - |
| 1777296811 | 20° C | 44% | 965.1 hPa | 0 mm | - | - | - |
| 1777295011 | 18.89° C | 44% | 965.5 hPa | 0 mm | - | - | - |
| 1777293210 | 18.89° C | 46% | 965.5 hPa | 0 mm | - | - | - |
| 1777280609 | 15.56° C | 54% | 966.9 hPa | 0 mm | - | - | - |
* Rain latest hour (hover to see other rain measurements)
** Current wind speed in m/s (hover to see current wind gust speed)